sensor_id;sensor_type;location;lat;lon;timestamp;temperature;humidity
5459;DHT22;2752;49.992;8.422;2022-08-07T00:01:16;17.70;1.00
5459;DHT22;2752;49.992;8.422;2022-08-07T00:03:43;17.70;1.00
5459;DHT22;2752;49.992;8.422;2022-08-07T00:06:10;17.70;1.00
5459;DHT22;2752;49.992;8.422;2022-08-07T00:08:36;17.60;1.00
5459;DHT22;2752;49.992;8.422;2022-08-07T00:11:04;17.60;1.00
5459;DHT22;2752;49.992;8.422;2022-08-07T00:13:32;17.50;1.00
5459;DHT22;2752;49.992;8.422;2022-08-07T00:15:59;17.40;1.00
5459;DHT22;2752;49.992;8.422;2022-08-07T00:18:28;17.50;1.00
5459;DHT22;2752;49.992;8.422;2022-08-07T00:20:56;17.50;1.00
5459;DHT22;2752;49.992;8.422;2022-08-07T00:23:24;17.50;1.00
5459;DHT22;2752;49.992;8.422;2022-08-07T00:25:51;17.50;1.00
5459;DHT22;2752;49.992;8.422;2022-08-07T00:28:18;17.60;1.00
5459;DHT22;2752;49.992;8.422;2022-08-07T00:30:45;17.50;1.00
5459;DHT22;2752;49.992;8.422;2022-08-07T00:33:12;17.40;1.00
5459;DHT22;2752;49.992;8.422;2022-08-07T00:35:40;18.70;1.00
5459;DHT22;2752;49.992;8.422;2022-08-07T00:38:07;17.30;1.00
5459;DHT22;2752;49.992;8.422;2022-08-07T00:40:34;17.20;1.00
5459;DHT22;2752;49.992;8.422;2022-08-07T00:43:00;17.20;1.00
5459;DHT22;2752;49.992;8.422;2022-08-07T00:45:27;17.20;1.00
5459;DHT22;2752;49.992;8.422;2022-08-07T00:47:54;17.10;1.00
5459;DHT22;2752;49.992;8.422;2022-08-07T00:50:21;17.10;1.00
5459;DHT22;2752;49.992;8.422;2022-08-07T00:52:49;17.00;1.00
5459;DHT22;2752;49.992;8.422;2022-08-07T00:55:17;17.00;1.00
5459;DHT22;2752;49.992;8.422;2022-08-07T00:57:44;16.90;1.00
5459;DHT22;2752;49.992;8.422;2022-08-07T01:00:12;16.90;1.00
5459;DHT22;2752;49.992;8.422;2022-08-07T01:02:40;16.90;1.00
5459;DHT22;2752;49.992;8.422;2022-08-07T01:05:09;16.80;1.00
5459;DHT22;2752;49.992;8.422;2022-08-07T01:07:35;16.90;1.00
5459;DHT22;2752;49.992;8.422;2022-08-07T01:10:04;16.80;1.00
5459;DHT22;2752;49.992;8.422;2022-08-07T01:12:31;16.80;1.00
5459;DHT22;2752;49.992;8.422;2022-08-07T01:14:58;16.90;1.00
5459;DHT22;2752;49.992;8.422;2022-08-07T01:17:27;16.80;1.00
5459;DHT22;2752;49.992;8.422;2022-08-07T01:20:00;16.90;1.00
5459;DHT22;2752;49.992;8.422;2022-08-07T01:22:29;16.90;1.00
5459;DHT22;2752;49.992;8.422;2022-08-07T01:24:56;16.80;1.00
5459;DHT22;2752;49.992;8.422;2022-08-07T01:27:24;16.80;1.00
5459;DHT22;2752;49.992;8.422;2022-08-07T01:29:51;16.80;1.00
5459;DHT22;2752;49.992;8.422;2022-08-07T01:32:18;16.80;1.00
5459;DHT22;2752;49.992;8.422;2022-08-07T01:34:44;16.70;1.00
5459;DHT22;2752;49.992;8.422;2022-08-07T01:37:11;16.80;1.00
5459;DHT22;2752;49.992;8.422;2022-08-07T01:39:43;16.80;1.00
5459;DHT22;2752;49.992;8.422;2022-08-07T01:42:11;16.70;1.00
5459;DHT22;2752;49.992;8.422;2022-08-07T01:44:38;16.70;1.00
5459;DHT22;2752;49.992;8.422;2022-08-07T01:47:05;16.80;1.00
5459;DHT22;2752;49.992;8.422;2022-08-07T01:49:31;16.80;1.00
5459;DHT22;2752;49.992;8.422;2022-08-07T01:52:01;16.80;1.00
5459;DHT22;2752;49.992;8.422;2022-08-07T01:54:29;16.80;1.00
5459;DHT22;2752;49.992;8.422;2022-08-07T01:57:03;16.70;1.00
5459;DHT22;2752;49.992;8.422;2022-08-07T01:59:35;16.70;1.00
5459;DHT22;2752;49.992;8.422;2022-08-07T02:02:09;16.70;1.00
5459;DHT22;2752;49.992;8.422;2022-08-07T02:04:40;16.70;1.00
5459;DHT22;2752;49.992;8.422;2022-08-07T02:07:09;16.60;1.00
5459;DHT22;2752;49.992;8.422;2022-08-07T02:09:40;16.70;1.00
5459;DHT22;2752;49.992;8.422;2022-08-07T02:12:10;16.70;1.00
5459;DHT22;2752;49.992;8.422;2022-08-07T02:14:46;16.70;1.00
5459;DHT22;2752;49.992;8.422;2022-08-07T02:17:14;16.70;1.00
5459;DHT22;2752;49.992;8.422;2022-08-07T02:19:43;16.60;1.00
5459;DHT22;2752;49.992;8.422;2022-08-07T02:22:12;16.60;1.00
5459;DHT22;2752;49.992;8.422;2022-08-07T02:24:41;16.60;1.00
5459;DHT22;2752;49.992;8.422;2022-08-07T02:27:10;16.50;1.00
5459;DHT22;2752;49.992;8.422;2022-08-07T02:29:38;16.50;1.00
5459;DHT22;2752;49.992;8.422;2022-08-07T02:32:07;16.50;1.00
5459;DHT22;2752;49.992;8.422;2022-08-07T02:34:35;16.50;1.00
5459;DHT22;2752;49.992;8.422;2022-08-07T02:37:04;16.50;1.00
5459;DHT22;2752;49.992;8.422;2022-08-07T02:39:33;16.50;1.00
5459;DHT22;2752;49.992;8.422;2022-08-07T02:42:01;16.40;1.00
5459;DHT22;2752;49.992;8.422;2022-08-07T02:44:30;16.40;1.00
5459;DHT22;2752;49.992;8.422;2022-08-07T02:46:59;16.30;1.00
5459;DHT22;2752;49.992;8.422;2022-08-07T02:49:26;16.20;1.00
5459;DHT22;2752;49.992;8.422;2022-08-07T02:51:55;16.20;1.00
5459;DHT22;2752;49.992;8.422;2022-08-07T02:54:25;16.20;1.00
5459;DHT22;2752;49.992;8.422;2022-08-07T02:56:53;16.20;1.00
5459;DHT22;2752;49.992;8.422;2022-08-07T02:59:24;16.20;1.00
5459;DHT22;2752;49.992;8.422;2022-08-07T03:01:54;16.10;1.00
5459;DHT22;2752;49.992;8.422;2022-08-07T03:04:22;16.20;1.00
5459;DHT22;2752;49.992;8.422;2022-08-07T03:06:49;16.10;1.00
5459;DHT22;2752;49.992;8.422;2022-08-07T03:09:17;16.10;1.00
5459;DHT22;2752;49.992;8.422;2022-08-07T03:11:46;16.00;1.00
5459;DHT22;2752;49.992;8.422;2022-08-07T03:14:13;16.00;1.00
5459;DHT22;2752;49.992;8.422;2022-08-07T03:16:40;16.00;1.00
5459;DHT22;2752;49.992;8.422;2022-08-07T03:19:09;16.10;1.00
5459;DHT22;2752;49.992;8.422;2022-08-07T03:21:37;16.00;1.00
5459;DHT22;2752;49.992;8.422;2022-08-07T03:24:04;16.00;1.00
5459;DHT22;2752;49.992;8.422;2022-08-07T03:26:33;15.90;1.00
5459;DHT22;2752;49.992;8.422;2022-08-07T03:29:02;15.90;1.00
5459;DHT22;2752;49.992;8.422;2022-08-07T03:31:31;15.90;1.00
5459;DHT22;2752;49.992;8.422;2022-08-07T03:34:00;15.80;1.00
5459;DHT22;2752;49.992;8.422;2022-08-07T03:36:29;15.70;1.00
5459;DHT22;2752;49.992;8.422;2022-08-07T03:39:01;15.80;1.00
5459;DHT22;2752;49.992;8.422;2022-08-07T03:41:28;15.70;1.00
5459;DHT22;2752;49.992;8.422;2022-08-07T03:43:56;15.80;1.00
5459;DHT22;2752;49.992;8.422;2022-08-07T03:46:24;15.70;1.00
5459;DHT22;2752;49.992;8.422;2022-08-07T03:48:52;15.70;1.00
5459;DHT22;2752;49.992;8.422;2022-08-07T03:51:20;15.70;1.00
5459;DHT22;2752;49.992;8.422;2022-08-07T03:53:48;15.70;1.00
5459;DHT22;2752;49.992;8.422;2022-08-07T03:56:19;15.70;1.00
5459;DHT22;2752;49.992;8.422;2022-08-07T03:58:46;15.60;1.00
5459;DHT22;2752;49.992;8.422;2022-08-07T04:01:14;15.60;1.00
5459;DHT22;2752;49.992;8.422;2022-08-07T04:03:41;15.60;1.00
5459;DHT22;2752;49.992;8.422;2022-08-07T04:06:09;15.50;1.00
5459;DHT22;2752;49.992;8.422;2022-08-07T04:08:36;15.50;1.00
5459;DHT22;2752;49.992;8.422;2022-08-07T04:11:06;15.50;1.00
5459;DHT22;2752;49.992;8.422;2022-08-07T04:13:34;15.50;1.00
5459;DHT22;2752;49.992;8.422;2022-08-07T04:16:01;15.50;1.00
5459;DHT22;2752;49.992;8.422;2022-08-07T04:18:28;15.50;1.00
5459;DHT22;2752;49.992;8.422;2022-08-07T04:20:54;15.40;1.00
5459;DHT22;2752;49.992;8.422;2022-08-07T04:23:22;15.60;1.00
5459;DHT22;2752;49.992;8.422;2022-08-07T04:25:50;15.60;1.00
5459;DHT22;2752;49.992;8.422;2022-08-07T04:28:19;15.50;1.00
5459;DHT22;2752;49.992;8.422;2022-08-07T04:30:47;15.50;1.00
5459;DHT22;2752;49.992;8.422;2022-08-07T04:33:14;15.50;1.00
5459;DHT22;2752;49.992;8.422;2022-08-07T04:35:43;15.50;1.00
5459;DHT22;2752;49.992;8.422;2022-08-07T04:38:10;15.50;1.00
5459;DHT22;2752;49.992;8.422;2022-08-07T04:40:39;15.60;1.00
5459;DHT22;2752;49.992;8.422;2022-08-07T04:43:06;15.50;1.00
5459;DHT22;2752;49.992;8.422;2022-08-07T04:45:39;15.60;1.00
5459;DHT22;2752;49.992;8.422;2022-08-07T04:48:11;15.60;1.00
5459;DHT22;2752;49.992;8.422;2022-08-07T04:50:41;14.70;1.00
5459;DHT22;2752;49.992;8.422;2022-08-07T04:53:12;15.60;1.00
5459;DHT22;2752;49.992;8.422;2022-08-07T04:55:47;15.70;1.00
5459;DHT22;2752;49.992;8.422;2022-08-07T04:58:21;15.70;1.00
5459;DHT22;2752;49.992;8.422;2022-08-07T05:00:53;15.80;1.00
5459;DHT22;2752;49.992;8.422;2022-08-07T05:03:25;15.80;1.00
5459;DHT22;2752;49.992;8.422;2022-08-07T05:05:58;15.80;1.00
5459;DHT22;2752;49.992;8.422;2022-08-07T05:08:35;15.90;1.00
5459;DHT22;2752;49.992;8.422;2022-08-07T05:11:08;16.00;1.00
5459;DHT22;2752;49.992;8.422;2022-08-07T05:13:40;16.00;1.00
5459;DHT22;2752;49.992;8.422;2022-08-07T05:16:09;16.10;1.00
5459;DHT22;2752;49.992;8.422;2022-08-07T05:18:42;16.20;1.00
5459;DHT22;2752;49.992;8.422;2022-08-07T05:21:11;16.30;1.00
5459;DHT22;2752;49.992;8.422;2022-08-07T05:23:40;16.30;1.00
5459;DHT22;2752;49.992;8.422;2022-08-07T05:26:13;16.30;1.00
5459;DHT22;2752;49.992;8.422;2022-08-07T05:28:41;16.40;1.00
5459;DHT22;2752;49.992;8.422;2022-08-07T05:31:10;16.50;1.00
5459;DHT22;2752;49.992;8.422;2022-08-07T05:33:38;16.70;1.00
5459;DHT22;2752;49.992;8.422;2022-08-07T05:36:06;16.70;1.00
5459;DHT22;2752;49.992;8.422;2022-08-07T05:38:34;16.80;1.00
5459;DHT22;2752;49.992;8.422;2022-08-07T05:41:01;16.90;1.00
5459;DHT22;2752;49.992;8.422;2022-08-07T05:43:28;17.00;1.00
5459;DHT22;2752;49.992;8.422;2022-08-07T05:45:56;17.10;1.00
5459;DHT22;2752;49.992;8.422;2022-08-07T05:48:24;17.20;1.00
5459;DHT22;2752;49.992;8.422;2022-08-07T05:50:52;17.20;1.00
5459;DHT22;2752;49.992;8.422;2022-08-07T05:53:19;17.30;1.00
5459;DHT22;2752;49.992;8.422;2022-08-07T05:55:46;17.40;1.00
5459;DHT22;2752;49.992;8.422;2022-08-07T05:58:13;17.50;1.00
5459;DHT22;2752;49.992;8.422;2022-08-07T06:00:43;17.60;1.00
5459;DHT22;2752;49.992;8.422;2022-08-07T06:03:13;17.70;1.00
5459;DHT22;2752;49.992;8.422;2022-08-07T06:05:44;17.80;1.00
5459;DHT22;2752;49.992;8.422;2022-08-07T06:08:12;18.00;1.00
5459;DHT22;2752;49.992;8.422;2022-08-07T06:10:38;17.70;1.00
5459;DHT22;2752;49.992;8.422;2022-08-07T06:13:06;18.10;1.00
5459;DHT22;2752;49.992;8.422;2022-08-07T06:15:34;18.50;1.00
5459;DHT22;2752;49.992;8.422;2022-08-07T06:18:01;18.30;1.00
5459;DHT22;2752;49.992;8.422;2022-08-07T06:20:29;18.50;1.00
5459;DHT22;2752;49.992;8.422;2022-08-07T06:22:58;18.50;1.00
5459;DHT22;2752;49.992;8.422;2022-08-07T06:25:25;18.70;1.00
5459;DHT22;2752;49.992;8.422;2022-08-07T06:28:00;18.70;1.00
5459;DHT22;2752;49.992;8.422;2022-08-07T06:30:27;18.70;1.00
5459;DHT22;2752;49.992;8.422;2022-08-07T06:32:53;18.70;1.00
5459;DHT22;2752;49.992;8.422;2022-08-07T06:35:20;18.70;1.00
5459;DHT22;2752;49.992;8.422;2022-08-07T06:37:47;18.70;1.00
5459;DHT22;2752;49.992;8.422;2022-08-07T06:40:15;18.80;1.00
5459;DHT22;2752;49.992;8.422;2022-08-07T06:42:45;18.90;1.00
5459;DHT22;2752;49.992;8.422;2022-08-07T06:45:14;19.20;1.00
5459;DHT22;2752;49.992;8.422;2022-08-07T06:47:42;19.10;1.00
5459;DHT22;2752;49.992;8.422;2022-08-07T06:50:10;19.10;1.00
5459;DHT22;2752;49.992;8.422;2022-08-07T06:52:38;19.20;1.00
5459;DHT22;2752;49.992;8.422;2022-08-07T06:55:10;19.40;1.00
5459;DHT22;2752;49.992;8.422;2022-08-07T06:57:40;19.50;1.00
5459;DHT22;2752;49.992;8.422;2022-08-07T07:00:10;19.60;1.00
5459;DHT22;2752;49.992;8.422;2022-08-07T07:02:39;19.70;1.00
5459;DHT22;2752;49.992;8.422;2022-08-07T07:05:07;19.90;1.00
5459;DHT22;2752;49.992;8.422;2022-08-07T07:07:34;19.90;1.00
5459;DHT22;2752;49.992;8.422;2022-08-07T07:10:01;20.00;1.00
5459;DHT22;2752;49.992;8.422;2022-08-07T07:12:37;20.00;1.00
5459;DHT22;2752;49.992;8.422;2022-08-07T07:15:10;20.10;1.00
5459;DHT22;2752;49.992;8.422;2022-08-07T07:17:42;20.00;1.00
5459;DHT22;2752;49.992;8.422;2022-08-07T07:20:15;20.00;1.00
5459;DHT22;2752;49.992;8.422;2022-08-07T07:22:42;20.00;1.00
5459;DHT22;2752;49.992;8.422;2022-08-07T07:25:11;20.10;1.00
5459;DHT22;2752;49.992;8.422;2022-08-07T07:27:41;20.20;1.00
5459;DHT22;2752;49.992;8.422;2022-08-07T07:30:12;20.30;1.00
5459;DHT22;2752;49.992;8.422;2022-08-07T07:32:40;20.40;1.00
5459;DHT22;2752;49.992;8.422;2022-08-07T07:35:10;20.50;1.00
5459;DHT22;2752;49.992;8.422;2022-08-07T07:37:38;20.60;1.00
5459;DHT22;2752;49.992;8.422;2022-08-07T07:40:11;20.80;1.00
5459;DHT22;2752;49.992;8.422;2022-08-07T07:42:40;20.90;1.00
5459;DHT22;2752;49.992;8.422;2022-08-07T07:45:07;21.00;1.00
5459;DHT22;2752;49.992;8.422;2022-08-07T07:47:40;20.90;1.00
5459;DHT22;2752;49.992;8.422;2022-08-07T07:50:10;20.90;1.00
5459;DHT22;2752;49.992;8.422;2022-08-07T07:52:37;20.90;1.00
5459;DHT22;2752;49.992;8.422;2022-08-07T07:55:06;21.10;1.00
5459;DHT22;2752;49.992;8.422;2022-08-07T07:57:34;21.10;1.00
5459;DHT22;2752;49.992;8.422;2022-08-07T08:00:02;21.20;1.00
5459;DHT22;2752;49.992;8.422;2022-08-07T08:02:30;21.30;1.00
5459;DHT22;2752;49.992;8.422;2022-08-07T08:05:01;21.60;1.00
5459;DHT22;2752;49.992;8.422;2022-08-07T08:07:28;21.70;1.00
5459;DHT22;2752;49.992;8.422;2022-08-07T08:09:56;21.60;1.00
5459;DHT22;2752;49.992;8.422;2022-08-07T08:12:24;21.40;1.00
5459;DHT22;2752;49.992;8.422;2022-08-07T08:14:51;21.40;1.00
5459;DHT22;2752;49.992;8.422;2022-08-07T08:17:18;21.60;1.00
5459;DHT22;2752;49.992;8.422;2022-08-07T08:19:50;21.70;1.00
5459;DHT22;2752;49.992;8.422;2022-08-07T08:22:20;21.90;1.00
5459;DHT22;2752;49.992;8.422;2022-08-07T08:25:07;22.00;1.00
5459;DHT22;2752;49.992;8.422;2022-08-07T08:27:53;22.10;1.00
5459;DHT22;2752;49.992;8.422;2022-08-07T08:30:21;22.10;1.00
5459;DHT22;2752;49.992;8.422;2022-08-07T08:32:52;22.10;1.00
5459;DHT22;2752;49.992;8.422;2022-08-07T08:35:22;22.10;1.00
5459;DHT22;2752;49.992;8.422;2022-08-07T08:37:54;22.20;1.00
5459;DHT22;2752;49.992;8.422;2022-08-07T08:40:25;22.40;1.00
5459;DHT22;2752;49.992;8.422;2022-08-07T08:42:56;22.50;1.00
5459;DHT22;2752;49.992;8.422;2022-08-07T08:45:30;22.60;1.00
5459;DHT22;2752;49.992;8.422;2022-08-07T08:48:05;22.70;1.00
5459;DHT22;2752;49.992;8.422;2022-08-07T08:50:37;22.80;1.00
5459;DHT22;2752;49.992;8.422;2022-08-07T08:53:11;22.80;1.00
5459;DHT22;2752;49.992;8.422;2022-08-07T08:55:44;22.80;1.00
5459;DHT22;2752;49.992;8.422;2022-08-07T08:58:15;22.90;1.00
5459;DHT22;2752;49.992;8.422;2022-08-07T09:00:50;22.80;1.00
5459;DHT22;2752;49.992;8.422;2022-08-07T09:03:23;22.90;1.00
5459;DHT22;2752;49.992;8.422;2022-08-07T09:05:54;22.90;1.00
5459;DHT22;2752;49.992;8.422;2022-08-07T09:08:32;23.10;1.00
5459;DHT22;2752;49.992;8.422;2022-08-07T09:11:09;23.30;1.00
5459;DHT22;2752;49.992;8.422;2022-08-07T09:13:42;23.40;1.00
5459;DHT22;2752;49.992;8.422;2022-08-07T09:16:19;23.50;1.00
5459;DHT22;2752;49.992;8.422;2022-08-07T09:21:51;23.70;1.00
5459;DHT22;2752;49.992;8.422;2022-08-07T09:24:30;23.60;1.00
5459;DHT22;2752;49.992;8.422;2022-08-07T09:27:07;23.50;1.00
5459;DHT22;2752;49.992;8.422;2022-08-07T09:29:45;23.50;1.00
5459;DHT22;2752;49.992;8.422;2022-08-07T09:32:25;23.60;1.00
5459;DHT22;2752;49.992;8.422;2022-08-07T09:35:01;23.50;1.00
5459;DHT22;2752;49.992;8.422;2022-08-07T09:37:35;23.70;1.00
5459;DHT22;2752;49.992;8.422;2022-08-07T09:40:15;23.90;1.00
5459;DHT22;2752;49.992;8.422;2022-08-07T09:42:51;23.90;1.00
5459;DHT22;2752;49.992;8.422;2022-08-07T09:45:27;23.90;1.00
5459;DHT22;2752;49.992;8.422;2022-08-07T09:48:09;23.90;1.00
5459;DHT22;2752;49.992;8.422;2022-08-07T09:50:54;24.10;1.00
5459;DHT22;2752;49.992;8.422;2022-08-07T09:53:24;24.30;1.00
5459;DHT22;2752;49.992;8.422;2022-08-07T09:56:11;24.20;1.00
5459;DHT22;2752;49.992;8.422;2022-08-07T10:01:34;24.40;1.00
5459;DHT22;2752;49.992;8.422;2022-08-07T10:04:29;24.70;1.00
5459;DHT22;2752;49.992;8.422;2022-08-07T10:07:04;24.80;1.00
5459;DHT22;2752;49.992;8.422;2022-08-07T10:09:49;24.80;1.00
5459;DHT22;2752;49.992;8.422;2022-08-07T10:12:42;24.80;1.00
5459;DHT22;2752;49.992;8.422;2022-08-07T10:15:26;24.90;1.00
5459;DHT22;2752;49.992;8.422;2022-08-07T10:18:23;24.90;1.00
5459;DHT22;2752;49.992;8.422;2022-08-07T10:21:08;25.10;1.00
5459;DHT22;2752;49.992;8.422;2022-08-07T10:23:49;25.00;1.00
5459;DHT22;2752;49.992;8.422;2022-08-07T10:26:40;25.10;1.00
5459;DHT22;2752;49.992;8.422;2022-08-07T10:29:25;25.20;1.00
5459;DHT22;2752;49.992;8.422;2022-08-07T10:32:11;25.60;1.00
5459;DHT22;2752;49.992;8.422;2022-08-07T10:34:51;25.50;1.00
5459;DHT22;2752;49.992;8.422;2022-08-07T10:37:28;25.50;1.00
5459;DHT22;2752;49.992;8.422;2022-08-07T10:40:05;25.40;1.00
5459;DHT22;2752;49.992;8.422;2022-08-07T10:42:40;25.40;1.00
5459;DHT22;2752;49.992;8.422;2022-08-07T10:45:17;25.50;1.00
5459;DHT22;2752;49.992;8.422;2022-08-07T10:47:49;25.50;1.00
5459;DHT22;2752;49.992;8.422;2022-08-07T10:50:21;25.60;1.00
5459;DHT22;2752;49.992;8.422;2022-08-07T10:52:58;25.90;1.00
5459;DHT22;2752;49.992;8.422;2022-08-07T10:55:30;25.80;1.00
5459;DHT22;2752;49.992;8.422;2022-08-07T10:58:12;25.70;1.00
5459;DHT22;2752;49.992;8.422;2022-08-07T11:00:48;25.70;1.00
5459;DHT22;2752;49.992;8.422;2022-08-07T11:03:24;25.80;1.00
5459;DHT22;2752;49.992;8.422;2022-08-07T11:06:03;26.00;1.00
5459;DHT22;2752;49.992;8.422;2022-08-07T11:08:39;26.20;1.00
5459;DHT22;2752;49.992;8.422;2022-08-07T11:11:13;26.00;1.00
5459;DHT22;2752;49.992;8.422;2022-08-07T11:13:45;26.00;1.00
5459;DHT22;2752;49.992;8.422;2022-08-07T11:16:19;26.00;1.00
5459;DHT22;2752;49.992;8.422;2022-08-07T11:18:50;25.70;1.00
5459;DHT22;2752;49.992;8.422;2022-08-07T11:21:26;25.70;1.00
5459;DHT22;2752;49.992;8.422;2022-08-07T11:24:00;25.70;1.00
5459;DHT22;2752;49.992;8.422;2022-08-07T11:26:34;25.90;1.00
5459;DHT22;2752;49.992;8.422;2022-08-07T11:29:09;26.00;1.00
5459;DHT22;2752;49.992;8.422;2022-08-07T11:31:42;25.80;1.00
5459;DHT22;2752;49.992;8.422;2022-08-07T11:34:16;26.00;1.00
5459;DHT22;2752;49.992;8.422;2022-08-07T11:36:53;25.80;1.00
5459;DHT22;2752;49.992;8.422;2022-08-07T11:39:37;25.90;1.00
5459;DHT22;2752;49.992;8.422;2022-08-07T11:42:12;25.90;1.00
5459;DHT22;2752;49.992;8.422;2022-08-07T11:44:50;26.00;1.00
5459;DHT22;2752;49.992;8.422;2022-08-07T11:47:33;26.20;1.00
5459;DHT22;2752;49.992;8.422;2022-08-07T11:50:13;26.40;1.00
5459;DHT22;2752;49.992;8.422;2022-08-07T11:52:54;26.20;1.00
5459;DHT22;2752;49.992;8.422;2022-08-07T11:55:44;26.40;1.00
5459;DHT22;2752;49.992;8.422;2022-08-07T11:58:18;26.40;1.00
5459;DHT22;2752;49.992;8.422;2022-08-07T12:00:57;26.30;1.00
5459;DHT22;2752;49.992;8.422;2022-08-07T12:03:44;26.50;1.00
5459;DHT22;2752;49.992;8.422;2022-08-07T12:06:30;26.30;1.00
5459;DHT22;2752;49.992;8.422;2022-08-07T12:09:01;26.10;1.00
5459;DHT22;2752;49.992;8.422;2022-08-07T12:11:34;26.30;1.00
5459;DHT22;2752;49.992;8.422;2022-08-07T12:14:06;26.40;1.00
5459;DHT22;2752;49.992;8.422;2022-08-07T12:16:41;26.40;1.00
5459;DHT22;2752;49.992;8.422;2022-08-07T12:19:18;26.70;1.00
5459;DHT22;2752;49.992;8.422;2022-08-07T12:21:53;26.80;1.00
5459;DHT22;2752;49.992;8.422;2022-08-07T12:24:30;26.90;1.00
5459;DHT22;2752;49.992;8.422;2022-08-07T12:27:01;26.90;1.00
5459;DHT22;2752;49.992;8.422;2022-08-07T12:29:34;26.80;1.00
5459;DHT22;2752;49.992;8.422;2022-08-07T12:32:10;26.90;1.00
5459;DHT22;2752;49.992;8.422;2022-08-07T12:34:42;26.90;1.00
5459;DHT22;2752;49.992;8.422;2022-08-07T12:37:10;26.90;1.00
5459;DHT22;2752;49.992;8.422;2022-08-07T12:39:39;27.20;1.00
5459;DHT22;2752;49.992;8.422;2022-08-07T12:42:09;27.20;1.00
5459;DHT22;2752;49.992;8.422;2022-08-07T12:44:39;27.20;1.00
5459;DHT22;2752;49.992;8.422;2022-08-07T12:47:11;27.20;1.00
5459;DHT22;2752;49.992;8.422;2022-08-07T12:49:52;27.10;1.00
5459;DHT22;2752;49.992;8.422;2022-08-07T12:52:28;27.20;1.00
5459;DHT22;2752;49.992;8.422;2022-08-07T12:55:02;27.30;1.00
5459;DHT22;2752;49.992;8.422;2022-08-07T12:57:31;27.50;1.00
5459;DHT22;2752;49.992;8.422;2022-08-07T13:00:02;27.60;1.00
5459;DHT22;2752;49.992;8.422;2022-08-07T13:02:45;27.60;1.00
5459;DHT22;2752;49.992;8.422;2022-08-07T13:05:28;27.50;1.00
5459;DHT22;2752;49.992;8.422;2022-08-07T13:08:23;27.70;1.00
5459;DHT22;2752;49.992;8.422;2022-08-07T13:11:07;27.80;1.00
5459;DHT22;2752;49.992;8.422;2022-08-07T13:13:46;28.00;1.00
5459;DHT22;2752;49.992;8.422;2022-08-07T13:16:25;28.00;1.00
5459;DHT22;2752;49.992;8.422;2022-08-07T13:18:59;28.10;1.00
5459;DHT22;2752;49.992;8.422;2022-08-07T13:21:31;28.00;1.00
5459;DHT22;2752;49.992;8.422;2022-08-07T13:24:09;27.70;1.00
5459;DHT22;2752;49.992;8.422;2022-08-07T13:26:48;27.70;1.00
5459;DHT22;2752;49.992;8.422;2022-08-07T13:29:20;27.90;1.00
5459;DHT22;2752;49.992;8.422;2022-08-07T13:31:52;27.90;1.00
5459;DHT22;2752;49.992;8.422;2022-08-07T13:34:28;28.10;1.00
5459;DHT22;2752;49.992;8.422;2022-08-07T13:37:03;28.10;1.00
5459;DHT22;2752;49.992;8.422;2022-08-07T13:39:35;27.90;1.00
5459;DHT22;2752;49.992;8.422;2022-08-07T13:42:03;27.50;1.00
5459;DHT22;2752;49.992;8.422;2022-08-07T13:44:36;27.60;1.00
5459;DHT22;2752;49.992;8.422;2022-08-07T13:47:05;27.50;1.00
5459;DHT22;2752;49.992;8.422;2022-08-07T13:49:34;27.50;1.00
5459;DHT22;2752;49.992;8.422;2022-08-07T13:52:06;27.50;1.00
5459;DHT22;2752;49.992;8.422;2022-08-07T13:54:34;27.50;1.00
5459;DHT22;2752;49.992;8.422;2022-08-07T13:57:03;27.60;1.00
5459;DHT22;2752;49.992;8.422;2022-08-07T13:59:34;27.70;1.00
5459;DHT22;2752;49.992;8.422;2022-08-07T14:02:05;27.70;1.00
5459;DHT22;2752;49.992;8.422;2022-08-07T14:04:43;27.70;1.00
5459;DHT22;2752;49.992;8.422;2022-08-07T14:07:14;27.70;1.00
5459;DHT22;2752;49.992;8.422;2022-08-07T14:09:41;27.70;1.00
5459;DHT22;2752;49.992;8.422;2022-08-07T14:12:17;28.00;1.00
5459;DHT22;2752;49.992;8.422;2022-08-07T14:14:51;28.10;1.00
5459;DHT22;2752;49.992;8.422;2022-08-07T14:17:22;28.20;1.00
5459;DHT22;2752;49.992;8.422;2022-08-07T14:19:51;28.20;1.00
5459;DHT22;2752;49.992;8.422;2022-08-07T14:22:24;28.30;1.00
5459;DHT22;2752;49.992;8.422;2022-08-07T14:24:58;28.30;1.00
5459;DHT22;2752;49.992;8.422;2022-08-07T14:27:30;28.40;1.00
5459;DHT22;2752;49.992;8.422;2022-08-07T14:30:02;28.30;1.00
5459;DHT22;2752;49.992;8.422;2022-08-07T14:32:30;28.20;1.00
5459;DHT22;2752;49.992;8.422;2022-08-07T14:35:02;28.20;1.00
5459;DHT22;2752;49.992;8.422;2022-08-07T14:37:31;28.30;1.00
5459;DHT22;2752;49.992;8.422;2022-08-07T14:40:00;28.30;1.00
5459;DHT22;2752;49.992;8.422;2022-08-07T14:42:27;28.50;1.00
5459;DHT22;2752;49.992;8.422;2022-08-07T14:44:57;28.50;1.00
5459;DHT22;2752;49.992;8.422;2022-08-07T14:47:25;28.30;1.00
5459;DHT22;2752;49.992;8.422;2022-08-07T14:49:56;28.40;1.00
5459;DHT22;2752;49.992;8.422;2022-08-07T14:52:25;28.50;1.00
5459;DHT22;2752;49.992;8.422;2022-08-07T14:54:54;28.60;1.00
5459;DHT22;2752;49.992;8.422;2022-08-07T14:57:22;28.40;1.00
5459;DHT22;2752;49.992;8.422;2022-08-07T14:59:51;28.60;1.00
5459;DHT22;2752;49.992;8.422;2022-08-07T15:02:21;28.60;1.00
5459;DHT22;2752;49.992;8.422;2022-08-07T15:04:49;28.50;1.00
5459;DHT22;2752;49.992;8.422;2022-08-07T15:07:19;28.40;1.00
5459;DHT22;2752;49.992;8.422;2022-08-07T15:09:47;28.50;1.00
5459;DHT22;2752;49.992;8.422;2022-08-07T15:12:18;28.50;1.00
5459;DHT22;2752;49.992;8.422;2022-08-07T15:14:50;28.50;1.00
5459;DHT22;2752;49.992;8.422;2022-08-07T15:17:25;28.60;1.00
5459;DHT22;2752;49.992;8.422;2022-08-07T15:19:57;28.70;1.00
5459;DHT22;2752;49.992;8.422;2022-08-07T15:22:28;28.60;1.00
5459;DHT22;2752;49.992;8.422;2022-08-07T15:24:56;28.60;1.00
5459;DHT22;2752;49.992;8.422;2022-08-07T15:27:26;28.60;1.00
5459;DHT22;2752;49.992;8.422;2022-08-07T15:29:58;28.60;1.00
5459;DHT22;2752;49.992;8.422;2022-08-07T15:32:26;28.70;1.00
5459;DHT22;2752;49.992;8.422;2022-08-07T15:34:54;28.70;1.00
5459;DHT22;2752;49.992;8.422;2022-08-07T15:37:25;28.80;1.00
5459;DHT22;2752;49.992;8.422;2022-08-07T15:39:58;29.00;1.00
5459;DHT22;2752;49.992;8.422;2022-08-07T15:42:46;29.20;1.00
5459;DHT22;2752;49.992;8.422;2022-08-07T15:45:29;29.70;1.00
5459;DHT22;2752;49.992;8.422;2022-08-07T15:48:00;30.00;1.00
5459;DHT22;2752;49.992;8.422;2022-08-07T15:50:30;30.20;1.00
5459;DHT22;2752;49.992;8.422;2022-08-07T15:52:59;30.10;1.00
5459;DHT22;2752;49.992;8.422;2022-08-07T15:55:29;30.20;1.00
5459;DHT22;2752;49.992;8.422;2022-08-07T15:57:58;30.00;1.00
5459;DHT22;2752;49.992;8.422;2022-08-07T16:00:31;30.00;1.00
5459;DHT22;2752;49.992;8.422;2022-08-07T16:03:01;29.70;1.00
5459;DHT22;2752;49.992;8.422;2022-08-07T16:05:29;28.50;1.00
5459;DHT22;2752;49.992;8.422;2022-08-07T16:08:02;29.70;1.00
5459;DHT22;2752;49.992;8.422;2022-08-07T16:10:30;29.40;1.00
5459;DHT22;2752;49.992;8.422;2022-08-07T16:13:25;29.40;1.00
5459;DHT22;2752;49.992;8.422;2022-08-07T16:16:04;29.40;1.00
5459;DHT22;2752;49.992;8.422;2022-08-07T16:18:43;29.50;1.00
5459;DHT22;2752;49.992;8.422;2022-08-07T16:21:22;29.30;1.00
5459;DHT22;2752;49.992;8.422;2022-08-07T16:23:59;29.60;1.00
5459;DHT22;2752;49.992;8.422;2022-08-07T16:26:38;29.60;1.00
5459;DHT22;2752;49.992;8.422;2022-08-07T16:29:20;29.40;1.00
5459;DHT22;2752;49.992;8.422;2022-08-07T16:31:54;29.40;1.00
5459;DHT22;2752;49.992;8.422;2022-08-07T16:34:31;29.60;1.00
5459;DHT22;2752;49.992;8.422;2022-08-07T16:37:26;29.70;1.00
5459;DHT22;2752;49.992;8.422;2022-08-07T16:40:18;29.40;1.00
5459;DHT22;2752;49.992;8.422;2022-08-07T16:42:58;29.50;1.00
5459;DHT22;2752;49.992;8.422;2022-08-07T16:45:58;29.60;1.00
5459;DHT22;2752;49.992;8.422;2022-08-07T16:51:35;29.40;1.00
5459;DHT22;2752;49.992;8.422;2022-08-07T16:54:22;29.50;1.00
5459;DHT22;2752;49.992;8.422;2022-08-07T16:57:06;29.60;1.00